sensor_id;sensor_type;location;lat;lon;timestamp;temperature;humidity
10046;DHT22;5063;50.878;4.742;2022-08-19T00:01:43;18.00;99.90
10046;DHT22;5063;50.878;4.742;2022-08-19T00:04:12;18.00;99.90
10046;DHT22;5063;50.878;4.742;2022-08-19T00:06:40;18.00;99.90
10046;DHT22;5063;50.878;4.742;2022-08-19T00:09:09;18.00;99.90
10046;DHT22;5063;50.878;4.742;2022-08-19T00:11:35;18.00;99.90
10046;DHT22;5063;50.878;4.742;2022-08-19T00:14:03;18.00;99.90
10046;DHT22;5063;50.878;4.742;2022-08-19T00:16:29;17.90;99.90
10046;DHT22;5063;50.878;4.742;2022-08-19T00:18:55;18.00;99.90
10046;DHT22;5063;50.878;4.742;2022-08-19T00:21:22;18.00;99.90
10046;DHT22;5063;50.878;4.742;2022-08-19T00:23:48;18.00;99.90
10046;DHT22;5063;50.878;4.742;2022-08-19T00:26:14;18.00;99.90
10046;DHT22;5063;50.878;4.742;2022-08-19T00:28:41;18.00;99.90
10046;DHT22;5063;50.878;4.742;2022-08-19T00:31:07;18.00;99.90
10046;DHT22;5063;50.878;4.742;2022-08-19T00:33:34;18.00;99.90
10046;DHT22;5063;50.878;4.742;2022-08-19T00:36:02;18.00;99.90
10046;DHT22;5063;50.878;4.742;2022-08-19T00:38:30;18.00;99.90
10046;DHT22;5063;50.878;4.742;2022-08-19T00:40:56;18.00;99.90
10046;DHT22;5063;50.878;4.742;2022-08-19T00:43:24;17.90;99.90
10046;DHT22;5063;50.878;4.742;2022-08-19T00:45:51;17.90;99.90
10046;DHT22;5063;50.878;4.742;2022-08-19T00:48:18;17.90;99.90
10046;DHT22;5063;50.878;4.742;2022-08-19T00:50:44;17.90;99.90
10046;DHT22;5063;50.878;4.742;2022-08-19T00:53:12;17.80;99.90
10046;DHT22;5063;50.878;4.742;2022-08-19T00:55:42;17.80;99.90
10046;DHT22;5063;50.878;4.742;2022-08-19T00:58:12;17.80;99.90
10046;DHT22;5063;50.878;4.742;2022-08-19T01:00:39;17.90;99.90
10046;DHT22;5063;50.878;4.742;2022-08-19T01:03:16;17.90;99.90
10046;DHT22;5063;50.878;4.742;2022-08-19T01:05:43;17.90;99.90
10046;DHT22;5063;50.878;4.742;2022-08-19T01:08:10;18.10;99.90
10046;DHT22;5063;50.878;4.742;2022-08-19T01:10:41;18.20;99.90
10046;DHT22;5063;50.878;4.742;2022-08-19T01:13:09;18.20;99.90
10046;DHT22;5063;50.878;4.742;2022-08-19T01:15:47;18.20;99.90
10046;DHT22;5063;50.878;4.742;2022-08-19T01:18:15;18.30;99.90
10046;DHT22;5063;50.878;4.742;2022-08-19T01:20:42;18.30;99.90
10046;DHT22;5063;50.878;4.742;2022-08-19T01:23:08;18.40;99.90
10046;DHT22;5063;50.878;4.742;2022-08-19T01:25:52;18.40;99.90
10046;DHT22;5063;50.878;4.742;2022-08-19T01:28:23;18.40;99.90
10046;DHT22;5063;50.878;4.742;2022-08-19T01:30:51;18.40;99.90
10046;DHT22;5063;50.878;4.742;2022-08-19T01:33:18;18.40;99.90
10046;DHT22;5063;50.878;4.742;2022-08-19T01:35:45;18.40;99.90
10046;DHT22;5063;50.878;4.742;2022-08-19T01:38:21;18.40;99.90
10046;DHT22;5063;50.878;4.742;2022-08-19T01:40:47;18.30;99.90
10046;DHT22;5063;50.878;4.742;2022-08-19T01:43:13;18.30;99.90
10046;DHT22;5063;50.878;4.742;2022-08-19T01:45:39;18.30;99.90
10046;DHT22;5063;50.878;4.742;2022-08-19T01:48:06;18.20;99.90
10046;DHT22;5063;50.878;4.742;2022-08-19T01:50:33;18.20;99.90
10046;DHT22;5063;50.878;4.742;2022-08-19T01:53:02;18.10;99.90
10046;DHT22;5063;50.878;4.742;2022-08-19T01:55:29;18.10;99.90
10046;DHT22;5063;50.878;4.742;2022-08-19T01:57:57;18.00;99.90
10046;DHT22;5063;50.878;4.742;2022-08-19T02:00:25;18.00;99.90
10046;DHT22;5063;50.878;4.742;2022-08-19T02:02:53;17.90;99.90
10046;DHT22;5063;50.878;4.742;2022-08-19T02:05:19;17.80;99.90
10046;DHT22;5063;50.878;4.742;2022-08-19T02:07:47;17.80;99.90
10046;DHT22;5063;50.878;4.742;2022-08-19T02:10:18;17.80;99.90
10046;DHT22;5063;50.878;4.742;2022-08-19T02:12:44;17.70;99.90
10046;DHT22;5063;50.878;4.742;2022-08-19T02:15:11;17.70;99.90
10046;DHT22;5063;50.878;4.742;2022-08-19T02:17:38;17.60;99.90
10046;DHT22;5063;50.878;4.742;2022-08-19T02:20:05;17.50;99.90
10046;DHT22;5063;50.878;4.742;2022-08-19T02:22:33;17.40;99.90
10046;DHT22;5063;50.878;4.742;2022-08-19T02:24:59;17.40;99.90
10046;DHT22;5063;50.878;4.742;2022-08-19T02:27:25;17.40;99.90
10046;DHT22;5063;50.878;4.742;2022-08-19T02:29:51;17.30;99.90
10046;DHT22;5063;50.878;4.742;2022-08-19T02:32:18;17.30;99.90
10046;DHT22;5063;50.878;4.742;2022-08-19T02:34:47;17.30;99.90
10046;DHT22;5063;50.878;4.742;2022-08-19T02:37:13;17.30;99.90
10046;DHT22;5063;50.878;4.742;2022-08-19T02:39:58;17.20;99.90
10046;DHT22;5063;50.878;4.742;2022-08-19T02:42:24;17.20;99.90
10046;DHT22;5063;50.878;4.742;2022-08-19T02:44:51;17.20;99.90
10046;DHT22;5063;50.878;4.742;2022-08-19T02:47:18;17.10;99.90
10046;DHT22;5063;50.878;4.742;2022-08-19T02:49:45;17.10;99.90
10046;DHT22;5063;50.878;4.742;2022-08-19T02:52:11;17.00;99.90
10046;DHT22;5063;50.878;4.742;2022-08-19T02:54:37;17.00;99.90
10046;DHT22;5063;50.878;4.742;2022-08-19T02:57:04;16.90;99.90
10046;DHT22;5063;50.878;4.742;2022-08-19T02:59:32;16.90;99.90
10046;DHT22;5063;50.878;4.742;2022-08-19T03:01:58;16.80;99.90
10046;DHT22;5063;50.878;4.742;2022-08-19T03:04:24;16.80;99.90
10046;DHT22;5063;50.878;4.742;2022-08-19T03:06:50;16.80;99.90
10046;DHT22;5063;50.878;4.742;2022-08-19T03:09:17;16.80;99.90
10046;DHT22;5063;50.878;4.742;2022-08-19T03:11:43;16.80;99.90
10046;DHT22;5063;50.878;4.742;2022-08-19T03:14:10;16.70;99.90
10046;DHT22;5063;50.878;4.742;2022-08-19T03:16:43;16.70;99.90
10046;DHT22;5063;50.878;4.742;2022-08-19T03:19:09;16.70;99.90
10046;DHT22;5063;50.878;4.742;2022-08-19T03:21:35;16.60;99.90
10046;DHT22;5063;50.878;4.742;2022-08-19T03:24:05;16.60;99.90
10046;DHT22;5063;50.878;4.742;2022-08-19T03:26:32;16.60;99.90
10046;DHT22;5063;50.878;4.742;2022-08-19T03:29:00;16.60;99.90
10046;DHT22;5063;50.878;4.742;2022-08-19T03:31:27;16.50;99.90
10046;DHT22;5063;50.878;4.742;2022-08-19T03:33:52;16.50;99.90
10046;DHT22;5063;50.878;4.742;2022-08-19T03:36:21;16.50;99.90
10046;DHT22;5063;50.878;4.742;2022-08-19T03:38:53;16.50;99.90
10046;DHT22;5063;50.878;4.742;2022-08-19T03:41:25;16.40;99.90
10046;DHT22;5063;50.878;4.742;2022-08-19T03:43:52;16.40;99.90
10046;DHT22;5063;50.878;4.742;2022-08-19T03:46:21;16.30;99.90
10046;DHT22;5063;50.878;4.742;2022-08-19T03:48:49;16.30;99.90
10046;DHT22;5063;50.878;4.742;2022-08-19T03:51:32;16.40;99.90
10046;DHT22;5063;50.878;4.742;2022-08-19T03:54:01;16.30;99.90
10046;DHT22;5063;50.878;4.742;2022-08-19T03:56:29;16.30;99.90
10046;DHT22;5063;50.878;4.742;2022-08-19T03:58:55;16.30;99.90
10046;DHT22;5063;50.878;4.742;2022-08-19T04:01:23;16.10;99.90
10046;DHT22;5063;50.878;4.742;2022-08-19T04:03:49;16.30;99.90
10046;DHT22;5063;50.878;4.742;2022-08-19T04:06:21;16.30;99.90
10046;DHT22;5063;50.878;4.742;2022-08-19T04:08:49;16.30;99.90
10046;DHT22;5063;50.878;4.742;2022-08-19T04:11:19;16.20;99.90
10046;DHT22;5063;50.878;4.742;2022-08-19T04:13:50;16.20;99.90
10046;DHT22;5063;50.878;4.742;2022-08-19T04:16:17;16.20;99.90
10046;DHT22;5063;50.878;4.742;2022-08-19T04:18:44;16.10;99.90
10046;DHT22;5063;50.878;4.742;2022-08-19T04:21:16;16.10;99.90
10046;DHT22;5063;50.878;4.742;2022-08-19T04:23:42;16.10;99.90
10046;DHT22;5063;50.878;4.742;2022-08-19T04:26:15;16.10;99.90
10046;DHT22;5063;50.878;4.742;2022-08-19T04:28:42;16.10;99.90
10046;DHT22;5063;50.878;4.742;2022-08-19T04:31:18;16.10;99.90
10046;DHT22;5063;50.878;4.742;2022-08-19T04:33:44;16.10;99.90
10046;DHT22;5063;50.878;4.742;2022-08-19T04:36:22;16.10;99.90
10046;DHT22;5063;50.878;4.742;2022-08-19T04:38:49;16.20;99.90
10046;DHT22;5063;50.878;4.742;2022-08-19T04:41:18;16.20;99.90
10046;DHT22;5063;50.878;4.742;2022-08-19T04:44:02;16.20;99.90
10046;DHT22;5063;50.878;4.742;2022-08-19T04:46:28;16.20;99.90
10046;DHT22;5063;50.878;4.742;2022-08-19T04:48:55;16.20;99.90
10046;DHT22;5063;50.878;4.742;2022-08-19T04:51:22;16.20;99.90
10046;DHT22;5063;50.878;4.742;2022-08-19T04:53:48;16.20;99.90
10046;DHT22;5063;50.878;4.742;2022-08-19T04:56:16;16.10;99.90
10046;DHT22;5063;50.878;4.742;2022-08-19T04:58:44;16.10;99.90
10046;DHT22;5063;50.878;4.742;2022-08-19T05:01:17;16.20;99.90
10046;DHT22;5063;50.878;4.742;2022-08-19T05:03:43;16.20;99.90
10046;DHT22;5063;50.878;4.742;2022-08-19T05:06:12;16.30;99.90
10046;DHT22;5063;50.878;4.742;2022-08-19T05:08:40;16.30;99.90
10046;DHT22;5063;50.878;4.742;2022-08-19T05:11:11;16.30;99.90
10046;DHT22;5063;50.878;4.742;2022-08-19T05:13:37;16.40;99.90
10046;DHT22;5063;50.878;4.742;2022-08-19T05:16:04;16.50;99.90
10046;DHT22;5063;50.878;4.742;2022-08-19T05:18:30;16.70;99.90
10046;DHT22;5063;50.878;4.742;2022-08-19T05:21:16;16.80;99.90
10046;DHT22;5063;50.878;4.742;2022-08-19T05:24:01;16.90;99.90
10046;DHT22;5063;50.878;4.742;2022-08-19T05:26:27;17.00;99.90
10046;DHT22;5063;50.878;4.742;2022-08-19T05:28:53;17.10;99.90
10046;DHT22;5063;50.878;4.742;2022-08-19T05:31:20;17.30;99.90
10046;DHT22;5063;50.878;4.742;2022-08-19T05:33:46;17.20;99.90
10046;DHT22;5063;50.878;4.742;2022-08-19T05:36:12;17.20;99.90
10046;DHT22;5063;50.878;4.742;2022-08-19T05:38:38;17.30;99.90
10046;DHT22;5063;50.878;4.742;2022-08-19T05:41:14;17.30;99.90
10046;DHT22;5063;50.878;4.742;2022-08-19T05:43:41;17.60;99.90
10046;DHT22;5063;50.878;4.742;2022-08-19T05:46:07;17.60;99.90
10046;DHT22;5063;50.878;4.742;2022-08-19T05:48:35;17.70;99.90
10046;DHT22;5063;50.878;4.742;2022-08-19T05:51:07;17.80;99.90
10046;DHT22;5063;50.878;4.742;2022-08-19T05:53:33;17.90;99.90
10046;DHT22;5063;50.878;4.742;2022-08-19T05:56:07;17.80;99.90
10046;DHT22;5063;50.878;4.742;2022-08-19T05:58:34;17.90;99.90
10046;DHT22;5063;50.878;4.742;2022-08-19T06:01:00;18.10;99.90
10046;DHT22;5063;50.878;4.742;2022-08-19T06:03:32;18.30;99.90
10046;DHT22;5063;50.878;4.742;2022-08-19T06:05:59;18.40;99.90
10046;DHT22;5063;50.878;4.742;2022-08-19T06:08:26;18.70;99.90
10046;DHT22;5063;50.878;4.742;2022-08-19T06:10:53;19.00;99.90
10046;DHT22;5063;50.878;4.742;2022-08-19T06:13:19;19.30;99.90
10046;DHT22;5063;50.878;4.742;2022-08-19T06:15:45;19.30;99.90
10046;DHT22;5063;50.878;4.742;2022-08-19T06:18:13;19.30;99.90
10046;DHT22;5063;50.878;4.742;2022-08-19T06:20:40;19.50;99.90
10046;DHT22;5063;50.878;4.742;2022-08-19T06:23:06;19.80;99.90
10046;DHT22;5063;50.878;4.742;2022-08-19T06:25:34;20.60;99.90
10046;DHT22;5063;50.878;4.742;2022-08-19T06:27:59;21.20;99.90
10046;DHT22;5063;50.878;4.742;2022-08-19T06:30:25;21.70;99.90
10046;DHT22;5063;50.878;4.742;2022-08-19T06:32:51;22.10;99.90
10046;DHT22;5063;50.878;4.742;2022-08-19T06:35:17;22.70;99.90
10046;DHT22;5063;50.878;4.742;2022-08-19T06:37:43;23.10;99.90
10046;DHT22;5063;50.878;4.742;2022-08-19T06:40:10;24.10;99.90
10046;DHT22;5063;50.878;4.742;2022-08-19T06:42:37;24.90;99.90
10046;DHT22;5063;50.878;4.742;2022-08-19T06:45:06;25.50;99.90
10046;DHT22;5063;50.878;4.742;2022-08-19T06:47:33;25.20;99.90
10046;DHT22;5063;50.878;4.742;2022-08-19T06:50:00;25.70;99.90
10046;DHT22;5063;50.878;4.742;2022-08-19T06:52:33;24.70;99.90
10046;DHT22;5063;50.878;4.742;2022-08-19T06:55:00;24.20;99.90
10046;DHT22;5063;50.878;4.742;2022-08-19T06:57:26;24.20;99.90
10046;DHT22;5063;50.878;4.742;2022-08-19T06:59:52;24.20;99.90
10046;DHT22;5063;50.878;4.742;2022-08-19T07:02:19;24.40;99.90
10046;DHT22;5063;50.878;4.742;2022-08-19T07:04:45;24.90;99.90
10046;DHT22;5063;50.878;4.742;2022-08-19T07:07:14;25.20;99.90
10046;DHT22;5063;50.878;4.742;2022-08-19T07:09:43;25.60;99.90
10046;DHT22;5063;50.878;4.742;2022-08-19T07:12:11;25.60;99.90
10046;DHT22;5063;50.878;4.742;2022-08-19T07:14:39;25.50;99.90
10046;DHT22;5063;50.878;4.742;2022-08-19T07:17:08;25.80;99.90
10046;DHT22;5063;50.878;4.742;2022-08-19T07:19:35;26.80;99.90
10046;DHT22;5063;50.878;4.742;2022-08-19T07:22:03;27.50;99.90
10046;DHT22;5063;50.878;4.742;2022-08-19T07:24:31;27.50;99.90
10046;DHT22;5063;50.878;4.742;2022-08-19T07:26:59;28.80;99.90
10046;DHT22;5063;50.878;4.742;2022-08-19T07:29:27;30.10;99.90
10046;DHT22;5063;50.878;4.742;2022-08-19T07:31:53;30.40;99.90
10046;DHT22;5063;50.878;4.742;2022-08-19T07:34:22;31.30;99.90
10046;DHT22;5063;50.878;4.742;2022-08-19T07:36:49;31.50;97.40
10046;DHT22;5063;50.878;4.742;2022-08-19T07:39:30;31.70;96.70
10046;DHT22;5063;50.878;4.742;2022-08-19T07:41:58;32.00;95.20
10046;DHT22;5063;50.878;4.742;2022-08-19T07:44:25;32.50;93.20
10046;DHT22;5063;50.878;4.742;2022-08-19T07:46:54;32.50;92.50
10046;DHT22;5063;50.878;4.742;2022-08-19T07:49:21;31.90;92.40
10046;DHT22;5063;50.878;4.742;2022-08-19T07:51:51;31.90;95.50
10046;DHT22;5063;50.878;4.742;2022-08-19T07:54:19;32.20;92.70
10046;DHT22;5063;50.878;4.742;2022-08-19T07:56:45;31.40;94.60
10046;DHT22;5063;50.878;4.742;2022-08-19T07:59:11;29.90;99.30
10046;DHT22;5063;50.878;4.742;2022-08-19T08:01:37;29.40;99.90
10046;DHT22;5063;50.878;4.742;2022-08-19T08:04:06;30.70;99.90
10046;DHT22;5063;50.878;4.742;2022-08-19T08:06:52;31.50;97.80
10046;DHT22;5063;50.878;4.742;2022-08-19T08:09:40;32.80;93.10
10046;DHT22;5063;50.878;4.742;2022-08-19T08:12:19;32.40;91.40
10046;DHT22;5063;50.878;4.742;2022-08-19T08:14:52;31.30;94.00
10046;DHT22;5063;50.878;4.742;2022-08-19T08:17:22;29.70;99.90
10046;DHT22;5063;50.878;4.742;2022-08-19T08:19:48;29.40;99.90
10046;DHT22;5063;50.878;4.742;2022-08-19T08:22:17;29.00;99.90
10046;DHT22;5063;50.878;4.742;2022-08-19T08:25:18;28.10;99.90
10046;DHT22;5063;50.878;4.742;2022-08-19T08:27:46;27.60;99.90
10046;DHT22;5063;50.878;4.742;2022-08-19T08:30:21;26.80;99.90
10046;DHT22;5063;50.878;4.742;2022-08-19T08:32:47;26.10;99.90
10046;DHT22;5063;50.878;4.742;2022-08-19T08:35:15;25.40;99.90
10046;DHT22;5063;50.878;4.742;2022-08-19T08:37:42;25.20;99.90
10046;DHT22;5063;50.878;4.742;2022-08-19T08:43:03;26.70;99.90
10046;DHT22;5063;50.878;4.742;2022-08-19T08:45:35;28.30;99.90
10046;DHT22;5063;50.878;4.742;2022-08-19T08:48:19;29.60;99.90
10046;DHT22;5063;50.878;4.742;2022-08-19T08:50:47;29.30;99.90
10046;DHT22;5063;50.878;4.742;2022-08-19T08:53:17;28.70;99.90
10046;DHT22;5063;50.878;4.742;2022-08-19T08:55:44;27.60;99.90
10046;DHT22;5063;50.878;4.742;2022-08-19T08:58:20;28.10;99.90
10046;DHT22;5063;50.878;4.742;2022-08-19T09:00:49;29.40;99.90
10046;DHT22;5063;50.878;4.742;2022-08-19T09:03:20;29.90;99.90
10046;DHT22;5063;50.878;4.742;2022-08-19T09:06:07;29.80;99.90
10046;DHT22;5063;50.878;4.742;2022-08-19T09:11:09;27.50;99.90
10046;DHT22;5063;50.878;4.742;2022-08-19T09:16:21;26.30;99.90
10046;DHT22;5063;50.878;4.742;2022-08-19T09:18:57;27.50;99.90
10046;DHT22;5063;50.878;4.742;2022-08-19T09:21:25;28.40;99.90
10046;DHT22;5063;50.878;4.742;2022-08-19T09:23:51;28.00;99.90
10046;DHT22;5063;50.878;4.742;2022-08-19T09:26:20;27.70;99.90
10046;DHT22;5063;50.878;4.742;2022-08-19T09:28:48;27.30;99.90
10046;DHT22;5063;50.878;4.742;2022-08-19T09:31:23;26.50;99.90
10046;DHT22;5063;50.878;4.742;2022-08-19T09:33:50;25.80;99.90
10046;DHT22;5063;50.878;4.742;2022-08-19T09:36:17;26.30;99.90
10046;DHT22;5063;50.878;4.742;2022-08-19T09:38:44;26.90;99.90
10046;DHT22;5063;50.878;4.742;2022-08-19T09:41:16;27.30;99.90
10046;DHT22;5063;50.878;4.742;2022-08-19T09:43:46;26.90;99.90
10046;DHT22;5063;50.878;4.742;2022-08-19T09:46:12;26.70;99.90
10046;DHT22;5063;50.878;4.742;2022-08-19T09:48:39;26.40;99.90
10046;DHT22;5063;50.878;4.742;2022-08-19T09:51:08;26.30;99.90
10046;DHT22;5063;50.878;4.742;2022-08-19T09:53:34;26.50;99.90
10046;DHT22;5063;50.878;4.742;2022-08-19T09:56:02;26.90;99.90
10046;DHT22;5063;50.878;4.742;2022-08-19T09:58:28;26.90;99.90
10046;DHT22;5063;50.878;4.742;2022-08-19T10:00:59;26.90;99.90
10046;DHT22;5063;50.878;4.742;2022-08-19T10:03:27;27.10;99.90
10046;DHT22;5063;50.878;4.742;2022-08-19T10:05:54;27.20;99.90
10046;DHT22;5063;50.878;4.742;2022-08-19T10:08:23;26.70;99.90
10046;DHT22;5063;50.878;4.742;2022-08-19T10:10:51;26.60;99.90
10046;DHT22;5063;50.878;4.742;2022-08-19T10:13:19;26.70;99.90
10046;DHT22;5063;50.878;4.742;2022-08-19T10:15:49;26.60;99.90
10046;DHT22;5063;50.878;4.742;2022-08-19T10:18:19;25.90;99.90
10046;DHT22;5063;50.878;4.742;2022-08-19T10:20:50;26.10;99.90
10046;DHT22;5063;50.878;4.742;2022-08-19T10:23:16;26.50;99.90
10046;DHT22;5063;50.878;4.742;2022-08-19T10:25:43;26.60;99.90
10046;DHT22;5063;50.878;4.742;2022-08-19T10:28:09;26.50;99.90
10046;DHT22;5063;50.878;4.742;2022-08-19T10:30:38;26.50;99.90
10046;DHT22;5063;50.878;4.742;2022-08-19T10:33:04;26.50;99.90
10046;DHT22;5063;50.878;4.742;2022-08-19T10:35:31;27.10;99.90
10046;DHT22;5063;50.878;4.742;2022-08-19T10:37:56;27.30;99.90
10046;DHT22;5063;50.878;4.742;2022-08-19T10:40:27;27.90;99.90
10046;DHT22;5063;50.878;4.742;2022-08-19T10:42:54;28.00;99.90
10046;DHT22;5063;50.878;4.742;2022-08-19T10:45:21;28.00;99.90
10046;DHT22;5063;50.878;4.742;2022-08-19T10:47:48;27.80;99.90
10046;DHT22;5063;50.878;4.742;2022-08-19T10:50:14;27.50;99.90
10046;DHT22;5063;50.878;4.742;2022-08-19T10:53:04;27.40;99.90
10046;DHT22;5063;50.878;4.742;2022-08-19T10:55:30;27.90;99.90
10046;DHT22;5063;50.878;4.742;2022-08-19T10:58:17;27.90;99.90
10046;DHT22;5063;50.878;4.742;2022-08-19T11:00:43;27.80;99.90
10046;DHT22;5063;50.878;4.742;2022-08-19T11:03:16;27.80;99.90
10046;DHT22;5063;50.878;4.742;2022-08-19T11:05:41;28.50;99.90
10046;DHT22;5063;50.878;4.742;2022-08-19T11:08:08;28.60;99.90
10046;DHT22;5063;50.878;4.742;2022-08-19T11:10:40;28.60;99.90
10046;DHT22;5063;50.878;4.742;2022-08-19T11:13:06;28.70;99.90
10046;DHT22;5063;50.878;4.742;2022-08-19T11:15:32;28.50;99.90
10046;DHT22;5063;50.878;4.742;2022-08-19T11:17:59;28.30;99.90
10046;DHT22;5063;50.878;4.742;2022-08-19T11:20:25;28.00;99.90
10046;DHT22;5063;50.878;4.742;2022-08-19T11:22:52;27.80;99.90
10046;DHT22;5063;50.878;4.742;2022-08-19T11:25:19;27.60;99.90
10046;DHT22;5063;50.878;4.742;2022-08-19T11:27:45;27.50;99.90
10046;DHT22;5063;50.878;4.742;2022-08-19T11:30:13;27.10;99.90
10046;DHT22;5063;50.878;4.742;2022-08-19T11:32:39;26.80;99.90
10046;DHT22;5063;50.878;4.742;2022-08-19T11:35:05;26.60;99.90
10046;DHT22;5063;50.878;4.742;2022-08-19T11:37:31;26.70;99.90
10046;DHT22;5063;50.878;4.742;2022-08-19T11:40:05;26.70;99.90
10046;DHT22;5063;50.878;4.742;2022-08-19T11:42:31;26.70;99.90
10046;DHT22;5063;50.878;4.742;2022-08-19T11:45:15;26.40;99.90
10046;DHT22;5063;50.878;4.742;2022-08-19T11:47:41;26.20;99.90
10046;DHT22;5063;50.878;4.742;2022-08-19T11:50:07;26.30;99.90
10046;DHT22;5063;50.878;4.742;2022-08-19T11:52:32;26.30;99.90
10046;DHT22;5063;50.878;4.742;2022-08-19T11:54:58;26.00;99.90
10046;DHT22;5063;50.878;4.742;2022-08-19T11:57:24;26.00;99.90
10046;DHT22;5063;50.878;4.742;2022-08-19T11:59:51;25.70;99.90
10046;DHT22;5063;50.878;4.742;2022-08-19T12:02:17;25.60;99.90
10046;DHT22;5063;50.878;4.742;2022-08-19T12:04:43;25.70;99.90
10046;DHT22;5063;50.878;4.742;2022-08-19T12:07:08;25.90;99.90
10046;DHT22;5063;50.878;4.742;2022-08-19T12:09:34;26.00;99.90
10046;DHT22;5063;50.878;4.742;2022-08-19T12:12:00;26.10;99.90
10046;DHT22;5063;50.878;4.742;2022-08-19T12:14:27;26.60;99.90
10046;DHT22;5063;50.878;4.742;2022-08-19T12:16:55;26.70;99.90
10046;DHT22;5063;50.878;4.742;2022-08-19T12:19:21;26.70;99.90
10046;DHT22;5063;50.878;4.742;2022-08-19T12:21:47;26.60;99.90
10046;DHT22;5063;50.878;4.742;2022-08-19T12:24:13;26.10;99.90
10046;DHT22;5063;50.878;4.742;2022-08-19T12:26:39;25.60;99.90
10046;DHT22;5063;50.878;4.742;2022-08-19T12:29:05;25.10;99.90
10046;DHT22;5063;50.878;4.742;2022-08-19T12:31:31;25.10;99.90
10046;DHT22;5063;50.878;4.742;2022-08-19T12:33:57;25.10;99.90
10046;DHT22;5063;50.878;4.742;2022-08-19T12:36:24;25.30;99.90
10046;DHT22;5063;50.878;4.742;2022-08-19T12:38:51;25.60;99.90
10046;DHT22;5063;50.878;4.742;2022-08-19T12:41:17;26.00;99.90
10046;DHT22;5063;50.878;4.742;2022-08-19T12:43:44;26.20;99.90
10046;DHT22;5063;50.878;4.742;2022-08-19T12:46:10;26.70;99.90
10046;DHT22;5063;50.878;4.742;2022-08-19T12:48:37;27.40;99.90
10046;DHT22;5063;50.878;4.742;2022-08-19T12:51:09;27.60;99.90
10046;DHT22;5063;50.878;4.742;2022-08-19T12:53:35;27.90;99.90
10046;DHT22;5063;50.878;4.742;2022-08-19T12:56:01;27.90;99.90
10046;DHT22;5063;50.878;4.742;2022-08-19T12:58:28;28.30;99.90
10046;DHT22;5063;50.878;4.742;2022-08-19T13:00:54;28.50;99.90
10046;DHT22;5063;50.878;4.742;2022-08-19T13:03:20;28.60;99.90
10046;DHT22;5063;50.878;4.742;2022-08-19T13:05:52;29.20;99.90
10046;DHT22;5063;50.878;4.742;2022-08-19T13:08:18;29.40;99.90
10046;DHT22;5063;50.878;4.742;2022-08-19T13:10:44;28.90;99.90
10046;DHT22;5063;50.878;4.742;2022-08-19T13:13:09;28.90;99.90
10046;DHT22;5063;50.878;4.742;2022-08-19T13:15:38;29.10;99.90
10046;DHT22;5063;50.878;4.742;2022-08-19T13:18:06;29.50;99.90
10046;DHT22;5063;50.878;4.742;2022-08-19T13:20:32;29.80;99.90
10046;DHT22;5063;50.878;4.742;2022-08-19T13:22:58;29.90;99.90
10046;DHT22;5063;50.878;4.742;2022-08-19T13:25:24;29.50;99.90
10046;DHT22;5063;50.878;4.742;2022-08-19T13:27:50;29.20;99.90
10046;DHT22;5063;50.878;4.742;2022-08-19T13:30:18;29.30;99.90
10046;DHT22;5063;50.878;4.742;2022-08-19T13:33:04;29.30;99.90
10046;DHT22;5063;50.878;4.742;2022-08-19T13:35:57;29.00;99.90
10046;DHT22;5063;50.878;4.742;2022-08-19T13:38:24;28.90;99.90
10046;DHT22;5063;50.878;4.742;2022-08-19T13:40:52;28.70;99.90
10046;DHT22;5063;50.878;4.742;2022-08-19T13:43:20;28.50;99.90
10046;DHT22;5063;50.878;4.742;2022-08-19T13:45:48;28.30;99.90
10046;DHT22;5063;50.878;4.742;2022-08-19T13:48:13;28.20;99.90
10046;DHT22;5063;50.878;4.742;2022-08-19T13:50:43;28.20;99.90
10046;DHT22;5063;50.878;4.742;2022-08-19T13:53:10;28.20;99.90
10046;DHT22;5063;50.878;4.742;2022-08-19T13:55:41;28.10;99.90
10046;DHT22;5063;50.878;4.742;2022-08-19T13:58:08;28.20;99.90
10046;DHT22;5063;50.878;4.742;2022-08-19T14:00:41;28.10;99.90
10046;DHT22;5063;50.878;4.742;2022-08-19T14:03:07;28.50;99.90
10046;DHT22;5063;50.878;4.742;2022-08-19T14:05:34;28.80;99.90
10046;DHT22;5063;50.878;4.742;2022-08-19T14:08:00;28.80;99.90
10046;DHT22;5063;50.878;4.742;2022-08-19T14:10:27;28.80;99.90
10046;DHT22;5063;50.878;4.742;2022-08-19T14:12:55;28.30;99.90
10046;DHT22;5063;50.878;4.742;2022-08-19T14:15:21;28.00;99.90
10046;DHT22;5063;50.878;4.742;2022-08-19T14:17:49;27.70;99.90
10046;DHT22;5063;50.878;4.742;2022-08-19T14:20:15;27.70;99.90
10046;DHT22;5063;50.878;4.742;2022-08-19T14:22:41;27.80;99.90
10046;DHT22;5063;50.878;4.742;2022-08-19T14:25:09;27.70;99.90
10046;DHT22;5063;50.878;4.742;2022-08-19T14:27:37;27.70;99.90
10046;DHT22;5063;50.878;4.742;2022-08-19T14:30:06;27.60;99.90
10046;DHT22;5063;50.878;4.742;2022-08-19T14:32:33;27.60;99.90
10046;DHT22;5063;50.878;4.742;2022-08-19T14:34:59;28.00;99.90
10046;DHT22;5063;50.878;4.742;2022-08-19T14:37:26;28.10;99.90
10046;DHT22;5063;50.878;4.742;2022-08-19T14:39:52;28.00;99.90
10046;DHT22;5063;50.878;4.742;2022-08-19T14:42:18;27.90;99.90
10046;DHT22;5063;50.878;4.742;2022-08-19T14:44:44;27.90;99.90
10046;DHT22;5063;50.878;4.742;2022-08-19T14:47:10;27.80;99.90
10046;DHT22;5063;50.878;4.742;2022-08-19T14:49:36;27.60;99.90
10046;DHT22;5063;50.878;4.742;2022-08-19T14:52:02;28.00;99.90
10046;DHT22;5063;50.878;4.742;2022-08-19T14:54:28;28.00;99.90
10046;DHT22;5063;50.878;4.742;2022-08-19T14:56:54;27.80;99.90
10046;DHT22;5063;50.878;4.742;2022-08-19T14:59:20;27.70;99.90
10046;DHT22;5063;50.878;4.742;2022-08-19T15:01:46;27.60;99.90
10046;DHT22;5063;50.878;4.742;2022-08-19T15:04:12;27.20;99.90
10046;DHT22;5063;50.878;4.742;2022-08-19T15:06:37;27.10;99.90
10046;DHT22;5063;50.878;4.742;2022-08-19T15:09:03;26.80;99.90
10046;DHT22;5063;50.878;4.742;2022-08-19T15:11:29;26.50;99.90
10046;DHT22;5063;50.878;4.742;2022-08-19T15:13:58;26.40;99.90
10046;DHT22;5063;50.878;4.742;2022-08-19T15:16:25;26.20;99.90
10046;DHT22;5063;50.878;4.742;2022-08-19T15:18:53;26.20;99.90
10046;DHT22;5063;50.878;4.742;2022-08-19T15:21:19;25.90;99.90
10046;DHT22;5063;50.878;4.742;2022-08-19T15:23:49;25.60;99.90
10046;DHT22;5063;50.878;4.742;2022-08-19T15:26:17;25.40;99.90
10046;DHT22;5063;50.878;4.742;2022-08-19T15:28:43;25.10;99.90
10046;DHT22;5063;50.878;4.742;2022-08-19T15:31:09;25.10;99.90
10046;DHT22;5063;50.878;4.742;2022-08-19T15:33:36;25.40;99.90
10046;DHT22;5063;50.878;4.742;2022-08-19T15:36:04;25.20;99.90
10046;DHT22;5063;50.878;4.742;2022-08-19T15:38:31;25.30;99.90
10046;DHT22;5063;50.878;4.742;2022-08-19T15:40:59;25.30;99.90
10046;DHT22;5063;50.878;4.742;2022-08-19T15:43:46;25.20;99.90
10046;DHT22;5063;50.878;4.742;2022-08-19T15:46:19;25.10;99.90
10046;DHT22;5063;50.878;4.742;2022-08-19T15:48:47;24.70;99.90
10046;DHT22;5063;50.878;4.742;2022-08-19T15:51:13;24.60;99.90
10046;DHT22;5063;50.878;4.742;2022-08-19T15:53:40;24.30;99.90
10046;DHT22;5063;50.878;4.742;2022-08-19T15:56:07;23.80;99.90
10046;DHT22;5063;50.878;4.742;2022-08-19T15:58:33;23.70;99.90
10046;DHT22;5063;50.878;4.742;2022-08-19T16:01:17;23.70;99.90